McCoy, Virginia
Current Conditions -  °F | °C
As of 5:15 PM on Sunday 21 Dec 2014 (Local Time) from KPSK Reporting Station
Overcast Overcast  
Wind Chill: 38°   Ceiling: 3200
Heat Index: 42°   Visibility: 10mi
Dew Point: 35°   Wind: 6mph
Humidity: 76%   Direction: 120°ESE
Pressure: 30.17"   Gusts: NA
Location:  37.22°N, 80.6°W
Report Text: KPSK 212215Z AUTO 12005KT 10SM OVC032 06/02 A3017 RMK AO2 T00550015
Loading
Personal Weather Stations






























Interactive Weather Map New forecast layout! Learn more

10-Day Weather Forecast

Advertisements
Track Severe Weather on mobile